Home > Products > Valid Products > TAF

000
FTUS44 KMRX 281720
TAFTYS
TAF
KTYS 281720Z 2818/2918 24005KT P6SM SCT050
     FM282000 28006KT P6SM VCTS BKN050CB
     FM290200 26004KT P6SM SCT060 BKN100
     FM290700 32003KT 5SM BR FEW050 BKN150
     FM291100 23002KT P6SM BKN250=



000
FTUS44 KMRX 281720
TAFTYS
TAF
KTYS 281720Z 2818/2918 24005KT P6SM SCT050
     FM282000 28006KT P6SM VCTS BKN050CB
     FM290200 26004KT P6SM SCT060 BKN100
     FM290700 32003KT 5SM BR FEW050 BKN150
     FM291100 23002KT P6SM BKN250=



000
FTUS44 KMRX 281720
TAFCHA
TAF
KCHA 281720Z 2818/2918 VRB03KT P6SM VCTS BKN050CB
     FM290000 32003KT P6SM BKN060 OVC100
     FM290700 00000KT 5SM BR SCT060 BKN150
     FM291000 00000KT P6SM BKN250=



000
FTUS44 KMRX 281720
TAFTRI
TAF
KTRI 281720Z 2818/2918 25005KT P6SM SCT040
     FM282200 28006KT P6SM VCTS BKN050CB
     FM290200 VRB03KT P6SM VCSH BKN040 OVC100
     FM290800 00000KT 4SM BR SCT005 BKN020
     FM291400 00000KT P6SM SCT250=



000
FTUS44 KMRX 281720
TAFTRI
TAF
KTRI 281720Z 2818/2918 25005KT P6SM SCT040
     FM282200 28006KT P6SM VCTS BKN050CB
     FM290200 VRB03KT P6SM VCSH BKN040 OVC100
     FM290800 00000KT 4SM BR SCT005 BKN020
     FM291400 00000KT P6SM SCT250=



000
FTUS44 KMRX 281720
TAFCHA
TAF
KCHA 281720Z 2818/2918 VRB03KT P6SM VCTS BKN050CB
     FM290000 32003KT P6SM BKN060 OVC100
     FM290700 00000KT 5SM BR SCT060 BKN150
     FM291000 00000KT P6SM BKN250=



000
FTUS44 KMRX 281124
TAFTRI
TAF
KTRI 281124Z 2812/2912 00000KT 5SM BR SCT035 BKN080
      TEMPO 2812/2813 3SM BR BKN003
     FM281400 VRB03KT P6SM SCT030 BKN100
     FM281800 25005KT P6SM SCT040
     FM282200 28006KT P6SM VCTS BKN050CB
     FM290200 VRB03KT P6SM VCSH BKN040 OVC100
     FM290800 00000KT 5SM BR SCT005 BKN020=



000
FTUS44 KMRX 281124
TAFTYS
TAF
KTYS 281124Z 2812/2912 03004KT P6SM SCT060 BKN150
     FM281800 24005KT P6SM SCT050
     FM282300 28006KT P6SM VCTS BKN050CB
     FM290200 26004KT P6SM SCT060 BKN100
     FM290900 VRB03KT 6SM BR FEW050 BKN150=



000
FTUS44 KMRX 281124
TAFTRI
TAF
KTRI 281124Z 2812/2912 00000KT 5SM BR SCT035 BKN080
      TEMPO 2812/2813 3SM BR BKN003
     FM281400 VRB03KT P6SM SCT030 BKN100
     FM281800 25005KT P6SM SCT040
     FM282200 28006KT P6SM VCTS BKN050CB
     FM290200 VRB03KT P6SM VCSH BKN040 OVC100
     FM290800 00000KT 5SM BR SCT005 BKN020=



000
FTUS44 KMRX 281124
TAFCHA
TAF
KCHA 281124Z 2812/2912 VRB03KT 6SM BR SCT100 BKN250
     FM281400 VRB04KT P6SM SCT050
     FM282000 VRB03KT P6SM VCTS BKN050CB
     FM290000 32003KT P6SM BKN060 OVC100
     FM290700 00000KT P6SM SCT060 BKN150=



000
FTUS44 KMRX 281124
TAFCHA
TAF
KCHA 281124Z 2812/2912 VRB03KT 6SM BR SCT100 BKN250
     FM281400 VRB04KT P6SM SCT050
     FM282000 VRB03KT P6SM VCTS BKN050CB
     FM290000 32003KT P6SM BKN060 OVC100
     FM290700 00000KT P6SM SCT060 BKN150=



000
FTUS44 KMRX 281124
TAFTYS
TAF
KTYS 281124Z 2812/2912 03004KT P6SM SCT060 BKN150
     FM281800 24005KT P6SM SCT050
     FM282300 28006KT P6SM VCTS BKN050CB
     FM290200 26004KT P6SM SCT060 BKN100
     FM290900 VRB03KT 6SM BR FEW050 BKN150=



000
FTUS44 KMRX 281124
TAFCHA
TAF
KCHA 281124Z 2812/2912 VRB03KT 6SM BR SCT100 BKN250
     FM281400 VRB04KT P6SM SCT050
     FM282000 VRB03KT P6SM VCTS BKN050CB
     FM290000 32003KT P6SM BKN060 OVC100
     FM290700 00000KT P6SM SCT060 BKN150=



000
FTUS44 KMRX 281124
TAFTRI
TAF
KTRI 281124Z 2812/2912 00000KT 5SM BR SCT035 BKN080
      TEMPO 2812/2813 3SM BR BKN003
     FM281400 VRB03KT P6SM SCT030 BKN100
     FM281800 25005KT P6SM SCT040
     FM282200 28006KT P6SM VCTS BKN050CB
     FM290200 VRB03KT P6SM VCSH BKN040 OVC100
     FM290800 00000KT 5SM BR SCT005 BKN020=



000
FTUS44 KMRX 281124
TAFCHA
TAF
KCHA 281124Z 2812/2912 VRB03KT 6SM BR SCT100 BKN250
     FM281400 VRB04KT P6SM SCT050
     FM282000 VRB03KT P6SM VCTS BKN050CB
     FM290000 32003KT P6SM BKN060 OVC100
     FM290700 00000KT P6SM SCT060 BKN150=



000
FTUS44 KMRX 281124
TAFTYS
TAF
KTYS 281124Z 2812/2912 03004KT P6SM SCT060 BKN150
     FM281800 24005KT P6SM SCT050
     FM282300 28006KT P6SM VCTS BKN050CB
     FM290200 26004KT P6SM SCT060 BKN100
     FM290900 VRB03KT 6SM BR FEW050 BKN150=



000
FTUS44 KMRX 281124
TAFTYS
TAF
KTYS 281124Z 2812/2912 03004KT P6SM SCT060 BKN150
     FM281800 24005KT P6SM SCT050
     FM282300 28006KT P6SM VCTS BKN050CB
     FM290200 26004KT P6SM SCT060 BKN100
     FM290900 VRB03KT 6SM BR FEW050 BKN150=



000
FTUS44 KMRX 281124
TAFTRI
TAF
KTRI 281124Z 2812/2912 00000KT 5SM BR SCT035 BKN080
      TEMPO 2812/2813 3SM BR BKN003
     FM281400 VRB03KT P6SM SCT030 BKN100
     FM281800 25005KT P6SM SCT040
     FM282200 28006KT P6SM VCTS BKN050CB
     FM290200 VRB03KT P6SM VCSH BKN040 OVC100
     FM290800 00000KT 5SM BR SCT005 BKN020=



000
FTUS44 KMRX 280907 AAA
TAFTRI
TAF AMD
KTRI 280907Z 2809/2906 00000KT 5SM BR SCT035 OVC080
      TEMPO 2810/2813 2SM BR FEW035 SCT080
     FM281330 00000KT 3SM BR SCT002
     FM281430 00000KT P6SM SCT030
     FM281800 25005KT P6SM SCT040
     FM282200 28006KT P6SM VCTS BKN050CB
     FM290200 VRB03KT P6SM VCSH BKN040 OVC100=



000
FTUS44 KMRX 280907 AAA
TAFTRI
TAF AMD
KTRI 280907Z 2809/2906 00000KT 5SM BR SCT035 OVC080
      TEMPO 2810/2813 2SM BR FEW035 SCT080
     FM281330 00000KT 3SM BR SCT002
     FM281430 00000KT P6SM SCT030
     FM281800 25005KT P6SM SCT040
     FM282200 28006KT P6SM VCTS BKN050CB
     FM290200 VRB03KT P6SM VCSH BKN040 OVC100=



000
FTUS44 KMRX 280525
TAFCHA
TAF
KCHA 280525Z 2806/2906 VRB03KT P6SM SCT100 BKN250
     FM281600 VRB04KT P6SM SCT050
     FM282000 VRB03KT P6SM VCTS BKN050CB
     FM290000 32003KT P6SM BKN060 OVC100=



000
FTUS44 KMRX 280525
TAFTYS
TAF
KTYS 280525Z 2806/2906 03004KT P6SM BKN150
     FM281800 24005KT P6SM SCT050
     FM282300 28006KT P6SM VCTS BKN050CB
     FM290200 26004KT P6SM SCT060 BKN100=



000
FTUS44 KMRX 280525
TAFTRI
TAF
KTRI 280525Z 2806/2906 00000KT 4SM BR SCT080 BKN150
     FM280800 00000KT 2SM BR SCT150
      TEMPO 2809/2812 1/2SM FG BKN001
     FM281330 00000KT 3SM BR SCT002
     FM281430 00000KT P6SM SCT030
     FM281800 25005KT P6SM SCT040
     FM282200 28006KT P6SM VCTS BKN050CB
     FM290200 VRB03KT P6SM VCSH BKN040 OVC100=



000
FTUS44 KMRX 280525
TAFCHA
TAF
KCHA 280525Z 2806/2906 VRB03KT P6SM SCT100 BKN250
     FM281600 VRB04KT P6SM SCT050
     FM282000 VRB03KT P6SM VCTS BKN050CB
     FM290000 32003KT P6SM BKN060 OVC100=



000
FTUS44 KMRX 280525
TAFTYS
TAF
KTYS 280525Z 2806/2906 03004KT P6SM BKN150
     FM281800 24005KT P6SM SCT050
     FM282300 28006KT P6SM VCTS BKN050CB
     FM290200 26004KT P6SM SCT060 BKN100=



000
FTUS44 KMRX 280525
TAFTRI
TAF
KTRI 280525Z 2806/2906 00000KT 4SM BR SCT080 BKN150
     FM280800 00000KT 2SM BR SCT150
      TEMPO 2809/2812 1/2SM FG BKN001
     FM281330 00000KT 3SM BR SCT002
     FM281430 00000KT P6SM SCT030
     FM281800 25005KT P6SM SCT040
     FM282200 28006KT P6SM VCTS BKN050CB
     FM290200 VRB03KT P6SM VCSH BKN040 OVC100=



000
FTUS44 KMRX 280525
TAFTRI
TAF
KTRI 280525Z 2806/2906 00000KT 4SM BR SCT080 BKN150
     FM280800 00000KT 2SM BR SCT150
      TEMPO 2809/2812 1/2SM FG BKN001
     FM281330 00000KT 3SM BR SCT002
     FM281430 00000KT P6SM SCT030
     FM281800 25005KT P6SM SCT040
     FM282200 28006KT P6SM VCTS BKN050CB
     FM290200 VRB03KT P6SM VCSH BKN040 OVC100=



000
FTUS44 KMRX 280525
TAFTYS
TAF
KTYS 280525Z 2806/2906 03004KT P6SM BKN150
     FM281800 24005KT P6SM SCT050
     FM282300 28006KT P6SM VCTS BKN050CB
     FM290200 26004KT P6SM SCT060 BKN100=



000
FTUS44 KMRX 280525
TAFCHA
TAF
KCHA 280525Z 2806/2906 VRB03KT P6SM SCT100 BKN250
     FM281600 VRB04KT P6SM SCT050
     FM282000 VRB03KT P6SM VCTS BKN050CB
     FM290000 32003KT P6SM BKN060 OVC100=



000
FTUS44 KMRX 272320
TAFTRI
TAF
KTRI 272320Z 2800/2824 00000KT P6SM SCT150
     FM280600 00000KT 3SM BR SKC
     FM280800 00000KT 1 1/2SM BR SKC
      TEMPO 2809/2812 1/2SM FG VV002
     FM281300 00000KT P6SM SCT250
     FM281800 VRB03KT P6SM SCT050 BKN250=



000
FTUS44 KMRX 272320
TAFCHA
TAF
KCHA 272320Z 2800/2824 27003KT P6SM SCT050 BKN250
     FM280400 00000KT P6SM SCT250
     FM281800 VRB03KT P6SM SCT050 BKN250=



000
FTUS44 KMRX 272320
TAFTRI
TAF
KTRI 272320Z 2800/2824 00000KT P6SM SCT150
     FM280600 00000KT 3SM BR SKC
     FM280800 00000KT 1 1/2SM BR SKC
      TEMPO 2809/2812 1/2SM FG VV002
     FM281300 00000KT P6SM SCT250
     FM281800 VRB03KT P6SM SCT050 BKN250=



000
FTUS44 KMRX 272320
TAFTYS
TAF
KTYS 272320Z 2800/2824 VRB03KT P6SM SCT250
     FM281800 VRB03KT P6SM SCT050 BKN250=



000
FTUS44 KMRX 272320
TAFTRI
TAF
KTRI 272320Z 2800/2824 00000KT P6SM SCT150
     FM280600 00000KT 3SM BR SKC
     FM280800 00000KT 1 1/2SM BR SKC
      TEMPO 2809/2812 1/2SM FG VV002
     FM281300 00000KT P6SM SCT250
     FM281800 VRB03KT P6SM SCT050 BKN250=



000
FTUS44 KMRX 272320
TAFCHA
TAF
KCHA 272320Z 2800/2824 27003KT P6SM SCT050 BKN250
     FM280400 00000KT P6SM SCT250
     FM281800 VRB03KT P6SM SCT050 BKN250=



000
FTUS44 KMRX 272320
TAFTYS
TAF
KTYS 272320Z 2800/2824 VRB03KT P6SM SCT250
     FM281800 VRB03KT P6SM SCT050 BKN250=



000
FTUS44 KMRX 272320
TAFTYS
TAF
KTYS 272320Z 2800/2824 VRB03KT P6SM SCT250
     FM281800 VRB03KT P6SM SCT050 BKN250=



000
FTUS44 KMRX 272320
TAFCHA
TAF
KCHA 272320Z 2800/2824 27003KT P6SM SCT050 BKN250
     FM280400 00000KT P6SM SCT250
     FM281800 VRB03KT P6SM SCT050 BKN250=



000
FTUS44 KMRX 272320
TAFTRI
TAF
KTRI 272320Z 2800/2824 00000KT P6SM SCT150
     FM280600 00000KT 3SM BR SKC
     FM280800 00000KT 1 1/2SM BR SKC
      TEMPO 2809/2812 1/2SM FG VV002
     FM281300 00000KT P6SM SCT250
     FM281800 VRB03KT P6SM SCT050 BKN250=



000
FTUS44 KMRX 271720
TAFCHA
TAF
KCHA 271720Z 2718/2818 29005KT P6SM SCT040
     FM280200 VRB03KT P6SM SCT050 BKN150
     FM281200 00000KT P6SM SCT250=



000
FTUS44 KMRX 271720
TAFTRI
TAF
KTRI 271720Z 2718/2818 26003KT P6SM VCTS SCT050CB BKN150
     FM272200 00000KT P6SM FEW080 BKN150
     FM280800 00000KT 5SM BR BKN250
     FM281300 24002KT P6SM BKN250=



000
FTUS44 KMRX 271720
TAFCHA
TAF
KCHA 271720Z 2718/2818 29005KT P6SM SCT040
     FM280200 VRB03KT P6SM SCT050 BKN150
     FM281200 00000KT P6SM SCT250=



000
FTUS44 KMRX 271720
TAFTYS
TAF
KTYS 271720Z 2718/2818 23004KT P6SM SCT050
     FM280200 24003KT P6SM SCT100 BKN250=



000
FTUS44 KMRX 271720
TAFTYS
TAF
KTYS 271720Z 2718/2818 23004KT P6SM SCT050
     FM280200 24003KT P6SM SCT100 BKN250=



000
FTUS44 KMRX 271122
TAFTYS
TAF
KTYS 271122Z 2712/2812 23004KT P6SM SCT050
     FM280200 24003KT P6SM SCT100 BKN250=



000
FTUS44 KMRX 271122
TAFTRI
TAF
KTRI 271122Z 2712/2812 VRB03KT 6SM BR FEW050 BKN150
     FM271500 25006KT P6SM SCT050 BKN120
     FM280100 00000KT P6SM FEW080 BKN150
     FM280800 00000KT 5SM BR BKN250=



000
FTUS44 KMRX 271122
TAFCHA
TAF
KCHA 271122Z 2712/2812 00000KT P6SM FEW050 BKN150
     FM271500 29005KT P6SM SCT040
     FM280200 VRB03KT P6SM SCT050 BKN150
     FM280700 00000KT 6SM BR SCT080 BKN250=



000
FTUS44 KMRX 271122
TAFTYS
TAF
KTYS 271122Z 2712/2812 23004KT P6SM SCT050
     FM280200 24003KT P6SM SCT100 BKN250=



000
FTUS44 KMRX 271122
TAFTRI
TAF
KTRI 271122Z 2712/2812 VRB03KT 6SM BR FEW050 BKN150
     FM271500 25006KT P6SM SCT050 BKN120
     FM280100 00000KT P6SM FEW080 BKN150
     FM280800 00000KT 5SM BR BKN250=



000
FTUS44 KMRX 271122
TAFCHA
TAF
KCHA 271122Z 2712/2812 00000KT P6SM FEW050 BKN150
     FM271500 29005KT P6SM SCT040
     FM280200 VRB03KT P6SM SCT050 BKN150
     FM280700 00000KT 6SM BR SCT080 BKN250=



000
FTUS44 KMRX 270527
TAFCHA
TAF
KCHA 270527Z 2706/2806 00000KT P6SM FEW050 SCT250
     FM271500 29005KT P6SM SCT040
     FM280200 VRB03KT P6SM SCT050 BKN150=



000
FTUS44 KMRX 270527
TAFTRI
TAF
KTRI 270527Z 2706/2806 00000KT P6SM FEW100 SCT250
      TEMPO 2708/2712 4SM BR
     FM271500 25006KT P6SM SCT050
     FM280100 00000KT P6SM FEW080 BKN250=



000
FTUS44 KMRX 270527
TAFTYS
TAF
KTYS 270527Z 2706/2806 23004KT P6SM SCT150
     FM271500 24006KT P6SM SCT050
     FM280200 24003KT P6SM SCT120 BKN250=



000
FTUS44 KMRX 270527
TAFCHA
TAF
KCHA 270527Z 2706/2806 00000KT P6SM FEW050 SCT250
     FM271500 29005KT P6SM SCT040
     FM280200 VRB03KT P6SM SCT050 BKN150=



000
FTUS44 KMRX 270527
TAFTRI
TAF
KTRI 270527Z 2706/2806 00000KT P6SM FEW100 SCT250
      TEMPO 2708/2712 4SM BR
     FM271500 25006KT P6SM SCT050
     FM280100 00000KT P6SM FEW080 BKN250=



000
FTUS44 KMRX 270527
TAFTYS
TAF
KTYS 270527Z 2706/2806 23004KT P6SM SCT150
     FM271500 24006KT P6SM SCT050
     FM280200 24003KT P6SM SCT120 BKN250=



000
FTUS44 KMRX 262326
TAFTRI
TAF
KTRI 262326Z 2700/2724 VRB03KT P6SM SCT050 BKN250
      TEMPO 2708/2712 4SM BR
     FM271500 25006KT P6SM SCT050=



000
FTUS44 KMRX 262326
TAFCHA
TAF
KCHA 262326Z 2700/2724 20005KT P6SM VCTS SCT050CB BKN150
     FM270300 00000KT P6SM FEW050 BKN250
     FM271500 29005KT P6SM SCT050=



000
FTUS44 KMRX 262326
TAFTYS
TAF
KTYS 262326Z 2700/2724 26006KT P6SM FEW040 BKN150
     FM270300 00000KT P6SM SCT150
     FM271500 24006KT P6SM SCT050=



000
FTUS44 KMRX 262326
TAFCHA
TAF
KCHA 262326Z 2700/2724 20005KT P6SM VCTS SCT050CB BKN150
     FM270300 00000KT P6SM FEW050 BKN250
     FM271500 29005KT P6SM SCT050=



000
FTUS44 KMRX 262326
TAFTYS
TAF
KTYS 262326Z 2700/2724 26006KT P6SM FEW040 BKN150
     FM270300 00000KT P6SM SCT150
     FM271500 24006KT P6SM SCT050=



000
FTUS44 KMRX 262326
TAFTRI
TAF
KTRI 262326Z 2700/2724 VRB03KT P6SM SCT050 BKN250
      TEMPO 2708/2712 4SM BR
     FM271500 25006KT P6SM SCT050=



000
FTUS44 KMRX 262326
TAFCHA
TAF
KCHA 262326Z 2700/2724 20005KT P6SM VCTS SCT050CB BKN150
     FM270300 00000KT P6SM FEW050 BKN250
     FM271500 29005KT P6SM SCT050=



000
FTUS44 KMRX 262326
TAFTRI
TAF
KTRI 262326Z 2700/2724 VRB03KT P6SM SCT050 BKN250
      TEMPO 2708/2712 4SM BR
     FM271500 25006KT P6SM SCT050=



000
FTUS44 KMRX 262326
TAFTRI
TAF
KTRI 262326Z 2700/2724 VRB03KT P6SM SCT050 BKN250
      TEMPO 2708/2712 4SM BR
     FM271500 25006KT P6SM SCT050=



000
FTUS44 KMRX 262326
TAFCHA
TAF
KCHA 262326Z 2700/2724 20005KT P6SM VCTS SCT050CB BKN150
     FM270300 00000KT P6SM FEW050 BKN250
     FM271500 29005KT P6SM SCT050=



000
FTUS44 KMRX 262326
TAFTYS
TAF
KTYS 262326Z 2700/2724 26006KT P6SM FEW040 BKN150
     FM270300 00000KT P6SM SCT150
     FM271500 24006KT P6SM SCT050=



000
FTUS44 KMRX 262326
TAFTYS
TAF
KTYS 262326Z 2700/2724 26006KT P6SM FEW040 BKN150
     FM270300 00000KT P6SM SCT150
     FM271500 24006KT P6SM SCT050=



000
FTUS44 KMRX 261946 AAA
TAFCHA
TAF AMD
KCHA 261946Z 2620/2718 29006KT P6SM VCTS SCT060CB BKN250
     FM270000 VRB04KT P6SM SCT050
     FM270600 00000KT 6SM BR FEW050 BKN250
     FM271400 00000KT P6SM BKN250=



000
FTUS44 KMRX 261946 AAA
TAFCHA
TAF AMD
KCHA 261946Z 2620/2718 29006KT P6SM VCTS SCT060CB BKN250
     FM270000 VRB04KT P6SM SCT050
     FM270600 00000KT 6SM BR FEW050 BKN250
     FM271400 00000KT P6SM BKN250=



000
FTUS44 KMRX 261739
TAFTRI
TAF
KTRI 261739Z 2618/2718 23005KT P6SM SCT040 BKN250
     FM270000 00000KT P6SM SCT050
     FM270800 00000KT 4SM BR FEW050 BKN250
     FM271400 00000KT P6SM BKN250=



000
FTUS44 KMRX 261739
TAFTYS
TAF
KTYS 261739Z 2618/2718 24005KT P6SM SCT040
     FM270000 23004KT P6SM FEW050 SCT250
     FM270700 00000KT P6SM FEW060 BKN250
     FM271100 00000KT 6SM BR FEW060 BKN250
     FM271300 VRB03KT P6SM BKN250=



000
FTUS44 KMRX 261739
TAFCHA
TAF
KCHA 261739Z 2618/2718 31006KT P6SM SCT035
     FM262000 25005KT P6SM BKN040
     FM270000 VRB04KT P6SM SCT050
     FM270600 00000KT 6SM BR FEW050 BKN250
     FM271400 00000KT P6SM BKN250=



000
FTUS44 KMRX 261739
TAFTYS
TAF
KTYS 261739Z 2618/2718 24005KT P6SM SCT040
     FM270000 23004KT P6SM FEW050 SCT250
     FM270700 00000KT P6SM FEW060 BKN250
     FM271100 00000KT 6SM BR FEW060 BKN250
     FM271300 VRB03KT P6SM BKN250=



000
FTUS44 KMRX 261739
TAFCHA
TAF
KCHA 261739Z 2618/2718 31006KT P6SM SCT035
     FM262000 25005KT P6SM BKN040
     FM270000 VRB04KT P6SM SCT050
     FM270600 00000KT 6SM BR FEW050 BKN250
     FM271400 00000KT P6SM BKN250=



000
FTUS44 KMRX 261739
TAFTRI
TAF
KTRI 261739Z 2618/2718 23005KT P6SM SCT040 BKN250
     FM270000 00000KT P6SM SCT050
     FM270800 00000KT 4SM BR FEW050 BKN250
     FM271400 00000KT P6SM BKN250=



000
FTUS44 KMRX 261739
TAFTRI
TAF
KTRI 261739Z 2618/2718 23005KT P6SM SCT040 BKN250
     FM270000 00000KT P6SM SCT050
     FM270800 00000KT 4SM BR FEW050 BKN250
     FM271400 00000KT P6SM BKN250=



000
FTUS44 KMRX 261739
TAFTRI
TAF
KTRI 261739Z 2618/2718 23005KT P6SM SCT040 BKN250
     FM270000 00000KT P6SM SCT050
     FM270800 00000KT 4SM BR FEW050 BKN250
     FM271400 00000KT P6SM BKN250=



000
FTUS44 KMRX 261739
TAFCHA
TAF
KCHA 261739Z 2618/2718 31006KT P6SM SCT035
     FM262000 25005KT P6SM BKN040
     FM270000 VRB04KT P6SM SCT050
     FM270600 00000KT 6SM BR FEW050 BKN250
     FM271400 00000KT P6SM BKN250=



000
FTUS44 KMRX 261739
TAFTYS
TAF
KTYS 261739Z 2618/2718 24005KT P6SM SCT040
     FM270000 23004KT P6SM FEW050 SCT250
     FM270700 00000KT P6SM FEW060 BKN250
     FM271100 00000KT 6SM BR FEW060 BKN250
     FM271300 VRB03KT P6SM BKN250=



000
FTUS44 KMRX 261739
TAFCHA
TAF
KCHA 261739Z 2618/2718 31006KT P6SM SCT035
     FM262000 25005KT P6SM BKN040
     FM270000 VRB04KT P6SM SCT050
     FM270600 00000KT 6SM BR FEW050 BKN250
     FM271400 00000KT P6SM BKN250=



000
FTUS44 KMRX 261739
TAFTYS
TAF
KTYS 261739Z 2618/2718 24005KT P6SM SCT040
     FM270000 23004KT P6SM FEW050 SCT250
     FM270700 00000KT P6SM FEW060 BKN250
     FM271100 00000KT 6SM BR FEW060 BKN250
     FM271300 VRB03KT P6SM BKN250=



000
FTUS44 KMRX 261125
TAFTYS
TAF
KTYS 261125Z 2612/2712 03004KT 6SM BR FEW100 SCT250
     FM261400 27004KT P6SM SCT040
     FM270000 VRB03KT P6SM FEW050 SCT250
     FM270700 00000KT P6SM FEW060 BKN250=



000
FTUS44 KMRX 261125
TAFTYS
TAF
KTYS 261125Z 2612/2712 03004KT 6SM BR FEW100 SCT250
     FM261400 27004KT P6SM SCT040
     FM270000 VRB03KT P6SM FEW050 SCT250
     FM270700 00000KT P6SM FEW060 BKN250=



000
FTUS44 KMRX 261125
TAFCHA
TAF
KCHA 261125Z 2612/2712 33003KT P6SM SCT050
     FM262000 25005KT P6SM VCTS BKN040CB
     FM270000 32004KT P6SM SCT050
     FM270600 00000KT P6SM FEW050 BKN250=



000
FTUS44 KMRX 261125
TAFTRI
TAF
KTRI 261125Z 2612/2712 00000KT 4SM BR SKC
      TEMPO 2612/2613 1 1/2SM BR SCT005
     FM261300 27004KT P6SM SCT040
     FM270000 00000KT P6SM SCT050
     FM270800 00000KT 5SM BR FEW050 BKN250=



000
FTUS44 KMRX 261125
TAFCHA
TAF
KCHA 261125Z 2612/2712 33003KT P6SM SCT050
     FM262000 25005KT P6SM VCTS BKN040CB
     FM270000 32004KT P6SM SCT050
     FM270600 00000KT P6SM FEW050 BKN250=



000
FTUS44 KMRX 261125
TAFTRI
TAF
KTRI 261125Z 2612/2712 00000KT 4SM BR SKC
      TEMPO 2612/2613 1 1/2SM BR SCT005
     FM261300 27004KT P6SM SCT040
     FM270000 00000KT P6SM SCT050
     FM270800 00000KT 5SM BR FEW050 BKN250=



000
FTUS44 KMRX 261125
TAFTRI
TAF
KTRI 261125Z 2612/2712 00000KT 4SM BR SKC
      TEMPO 2612/2613 1 1/2SM BR SCT005
     FM261300 27004KT P6SM SCT040
     FM270000 00000KT P6SM SCT050
     FM270800 00000KT 5SM BR FEW050 BKN250=



000
FTUS44 KMRX 261125
TAFCHA
TAF
KCHA 261125Z 2612/2712 33003KT P6SM SCT050
     FM262000 25005KT P6SM VCTS BKN040CB
     FM270000 32004KT P6SM SCT050
     FM270600 00000KT P6SM FEW050 BKN250=



000
FTUS44 KMRX 261125
TAFTRI
TAF
KTRI 261125Z 2612/2712 00000KT 4SM BR SKC
      TEMPO 2612/2613 1 1/2SM BR SCT005
     FM261300 27004KT P6SM SCT040
     FM270000 00000KT P6SM SCT050
     FM270800 00000KT 5SM BR FEW050 BKN250=



000
FTUS44 KMRX 261125
TAFTYS
TAF
KTYS 261125Z 2612/2712 03004KT 6SM BR FEW100 SCT250
     FM261400 27004KT P6SM SCT040
     FM270000 VRB03KT P6SM FEW050 SCT250
     FM270700 00000KT P6SM FEW060 BKN250=



000
FTUS44 KMRX 261125
TAFCHA
TAF
KCHA 261125Z 2612/2712 33003KT P6SM SCT050
     FM262000 25005KT P6SM VCTS BKN040CB
     FM270000 32004KT P6SM SCT050
     FM270600 00000KT P6SM FEW050 BKN250=



000
FTUS44 KMRX 261125
TAFTYS
TAF
KTYS 261125Z 2612/2712 03004KT 6SM BR FEW100 SCT250
     FM261400 27004KT P6SM SCT040
     FM270000 VRB03KT P6SM FEW050 SCT250
     FM270700 00000KT P6SM FEW060 BKN250=



000
FTUS44 KMRX 261100 AAA
TAFTRI
TAF AMD
KTRI 261100Z 2611/2706 00000KT 4SM BR SKC
      TEMPO 2611/2613 1 1/2SM BR SCT005
     FM261300 27004KT P6SM SCT040
     FM270000 00000KT P6SM SCT050=



000
FTUS44 KMRX 261100 AAA
TAFTRI
TAF AMD
KTRI 261100Z 2611/2706 00000KT 4SM BR SKC
      TEMPO 2611/2613 1 1/2SM BR SCT005
     FM261300 27004KT P6SM SCT040
     FM270000 00000KT P6SM SCT050=



000
FTUS44 KMRX 261100 AAA
TAFTRI
TAF AMD
KTRI 261100Z 2611/2706 00000KT 4SM BR SKC
      TEMPO 2611/2613 1 1/2SM BR SCT005
     FM261300 27004KT P6SM SCT040
     FM270000 00000KT P6SM SCT050=



000
FTUS44 KMRX 261100 AAA
TAFTRI
TAF AMD
KTRI 261100Z 2611/2706 00000KT 4SM BR SKC
      TEMPO 2611/2613 1 1/2SM BR SCT005
     FM261300 27004KT P6SM SCT040
     FM270000 00000KT P6SM SCT050=



000
FTUS44 KMRX 260526
TAFTYS
TAF
KTYS 260526Z 2606/2706 29003KT P6SM SKC
     FM261400 27004KT P6SM SCT040
     FM270000 VRB03KT P6SM FEW050 SCT250=



000
FTUS44 KMRX 260526
TAFTRI
TAF
KTRI 260526Z 2606/2706 00000KT P6SM SKC
     FM260900 00000KT 4SM BR SKC
     FM261300 27004KT P6SM SCT040
     FM270000 00000KT P6SM SCT050=



000
FTUS44 KMRX 260526
TAFCHA
TAF
KCHA 260526Z 2606/2706 33003KT P6SM SCT250
     FM261400 27004KT P6SM SCT040
     FM262000 VRB03KT P6SM VCTS BKN040CB
     FM270000 00000KT P6SM SCT050=



000
FTUS44 KMRX 260526
TAFTYS
TAF
KTYS 260526Z 2606/2706 29003KT P6SM SKC
     FM261400 27004KT P6SM SCT040
     FM270000 VRB03KT P6SM FEW050 SCT250=



000
FTUS44 KMRX 260526
TAFCHA
TAF
KCHA 260526Z 2606/2706 33003KT P6SM SCT250
     FM261400 27004KT P6SM SCT040
     FM262000 VRB03KT P6SM VCTS BKN040CB
     FM270000 00000KT P6SM SCT050=



000
FTUS44 KMRX 260526
TAFTRI
TAF
KTRI 260526Z 2606/2706 00000KT P6SM SKC
     FM260900 00000KT 4SM BR SKC
     FM261300 27004KT P6SM SCT040
     FM270000 00000KT P6SM SCT050=



000
FTUS44 KMRX 252320
TAFCHA
TAF
KCHA 252320Z 2600/2624 33004KT P6SM SCT250
     FM261400 27004KT P6SM SCT040 SCT250=



000
FTUS44 KMRX 252320
TAFTRI
TAF
KTRI 252320Z 2600/2624 33004KT P6SM SKC
     FM260900 00000KT 4SM BR SKC
     FM261400 27004KT P6SM SCT040 SCT250=



000
FTUS44 KMRX 252320
TAFTYS
TAF
KTYS 252320Z 2600/2624 29004KT P6SM SKC
     FM261400 27004KT P6SM SCT040 SCT250=



000
FTUS44 KMRX 252320
TAFCHA
TAF
KCHA 252320Z 2600/2624 33004KT P6SM SCT250
     FM261400 27004KT P6SM SCT040 SCT250=



000
FTUS44 KMRX 252320
TAFTRI
TAF
KTRI 252320Z 2600/2624 33004KT P6SM SKC
     FM260900 00000KT 4SM BR SKC
     FM261400 27004KT P6SM SCT040 SCT250=



000
FTUS44 KMRX 252320
TAFTYS
TAF
KTYS 252320Z 2600/2624 29004KT P6SM SKC
     FM261400 27004KT P6SM SCT040 SCT250=



    US Dept of Commerce
    National Oceanic and Atmospheric Administration
    National Weather Service
    1325 East West Highway
    Silver Spring, MD 20910
    Page Author: NWS Internet Services Team
Disclaimer
Information Quality
Credits
Glossary
Privacy Policy
Freedom of Information Act (FOIA)
About Us
Career Opportunities